Time;durP1;ratioP1;P1;durP2;ratioP2;P2;SDS_P1;SDS_P2;PMS_P1;PMS_P2;Temp;Humidity;BMP_temperature;BMP_pressure;BME280_temperature;BME280_humidity;BME280_pressure;Samples;Min_cycle;Max_cycle;Signal;HPM_P1;HPM_P2
2023/12/16 00:00:21;;;;;;;15.80;11.98;;;6.60;99.90;;;;;;5115205;28;20073;-75
2023/12/16 00:02:47;;;;;;;16.38;12.02;;;6.60;99.90;;;;;;5127585;27;20027;-76
2023/12/16 00:05:13;;;;;;;16.52;13.50;;;6.60;99.90;;;;;;5136838;27;20055;-76
2023/12/16 00:07:38;;;;;;;16.90;12.77;;;6.50;99.90;;;;;;5136826;27;20134;-76
2023/12/16 00:10:06;;;;;;;12.00;10.57;;;6.50;99.90;;;;;;5136944;27;20058;-76
2023/12/16 00:12:32;;;;;;;13.20;10.38;;;6.50;99.90;;;;;;5136878;27;20496;-76
2023/12/16 00:14:57;;;;;;;12.85;9.02;;;6.60;99.90;;;;;;5136876;27;20015;-76
2023/12/16 00:17:24;;;;;;;11.73;9.10;;;6.60;99.90;;;;;;5136641;28;20064;-76
2023/12/16 00:19:50;;;;;;;10.18;8.32;;;6.60;99.90;;;;;;5130204;28;20007;-76
2023/12/16 00:22:16;;;;;;;8.25;7.45;;;6.60;99.90;;;;;;5118219;28;20493;-76
2023/12/16 00:24:42;;;;;;;9.45;6.93;;;6.60;99.90;;;;;;5136805;28;20088;-76
2023/12/16 00:27:08;;;;;;;9.60;7.40;;;6.70;99.90;;;;;;5118304;28;20399;-76
2023/12/16 00:29:33;;;;;;;7.13;6.43;;;6.70;99.90;;;;;;5136810;28;20035;-76
2023/12/16 00:31:59;;;;;;;7.10;6.40;;;6.70;99.90;;;;;;5136533;28;20019;-75
2023/12/16 00:34:25;;;;;;;6.57;5.95;;;6.70;99.90;;;;;;5118329;28;20515;-75
2023/12/16 00:36:50;;;;;;;6.25;5.70;;;6.80;99.90;;;;;;5136609;28;20045;-76
2023/12/16 00:39:16;;;;;;;6.07;5.47;;;6.90;99.90;;;;;;5118356;28;20023;-76
2023/12/16 00:41:42;;;;;;;6.43;5.35;;;6.90;99.90;;;;;;5118541;28;20019;-75
2023/12/16 00:44:08;;;;;;;6.15;5.55;;;7.00;99.90;;;;;;5136785;28;20078;-75
2023/12/16 00:46:34;;;;;;;5.82;5.32;;;7.00;99.90;;;;;;5137324;27;20023;-76
2023/12/16 00:49:00;;;;;;;6.57;5.88;;;7.10;99.90;;;;;;5122411;27;20118;-75
2023/12/16 00:51:25;;;;;;;7.80;5.78;;;7.00;99.90;;;;;;5140685;27;20102;-76
2023/12/16 00:53:51;;;;;;;5.70;5.20;;;7.10;99.90;;;;;;5140496;27;20051;-76
2023/12/16 00:56:17;;;;;;;5.82;5.22;;;7.10;99.90;;;;;;5140609;27;20027;-75
2023/12/16 00:58:42;;;;;;;6.63;5.93;;;7.00;99.90;;;;;;5122331;27;20027;-74
2023/12/16 01:01:08;;;;;;;6.72;5.97;;;7.10;99.90;;;;;;5140426;27;20027;-76
2023/12/16 01:03:34;;;;;;;8.60;5.75;;;7.20;99.90;;;;;;5121937;27;20059;-76
2023/12/16 01:06:00;;;;;;;8.93;6.20;;;7.20;99.90;;;;;;5140338;27;20084;-76
2023/12/16 01:08:26;;;;;;;7.07;5.57;;;7.20;99.90;;;;;;5140288;27;20088;-76
2023/12/16 01:10:51;;;;;;;6.75;6.05;;;7.10;99.90;;;;;;5140710;27;20058;-76
2023/12/16 01:13:17;;;;;;;7.65;6.90;;;7.00;99.90;;;;;;5141502;27;20031;-76
2023/12/16 01:15:43;;;;;;;7.32;6.63;;;7.00;99.90;;;;;;5121512;27;20027;-76
2023/12/16 01:18:08;;;;;;;8.35;7.35;;;6.80;99.90;;;;;;5121725;27;20020;-76
2023/12/16 01:20:34;;;;;;;8.13;7.13;;;6.70;99.90;;;;;;5133578;27;20019;-76
2023/12/16 01:23:00;;;;;;;8.88;7.22;;;6.70;99.90;;;;;;5140025;27;20034;-76
2023/12/16 01:25:25;;;;;;;8.02;7.20;;;6.70;99.90;;;;;;5139957;27;20065;-75
2023/12/16 01:27:51;;;;;;;9.95;7.07;;;6.70;99.90;;;;;;5139913;27;20038;-76
2023/12/16 01:30:17;;;;;;;9.30;7.18;;;6.60;99.90;;;;;;5139987;27;20019;-76
2023/12/16 01:32:42;;;;;;;10.48;8.35;;;6.50;99.90;;;;;;5137598;27;20489;-76
2023/12/16 01:35:08;;;;;;;9.65;8.05;;;6.40;99.90;;;;;;5139858;27;20428;-76
2023/12/16 01:37:34;;;;;;;10.93;8.50;;;6.40;99.90;;;;;;5139625;27;20107;-76
2023/12/16 01:40:00;;;;;;;10.73;7.53;;;6.40;99.90;;;;;;5139706;27;20027;-76
2023/12/16 01:42:25;;;;;;;9.77;8.60;;;6.40;99.90;;;;;;5121396;27;20027;-76
2023/12/16 01:44:51;;;;;;;10.38;8.43;;;6.40;99.90;;;;;;5121147;27;20024;-76
2023/12/16 01:47:17;;;;;;;10.05;8.32;;;6.40;99.90;;;;;;5121174;27;20031;-74
2023/12/16 01:49:44;;;;;;;9.18;8.15;;;6.50;99.90;;;;;;5139617;27;20428;-77
2023/12/16 01:52:10;;;;;;;8.98;8.02;;;6.50;99.90;;;;;;5139373;27;20023;-77
2023/12/16 01:54:36;;;;;;;10.80;9.70;;;6.50;99.90;;;;;;5120732;27;20068;-77
2023/12/16 01:57:03;;;;;;;11.15;9.73;;;6.40;99.90;;;;;;5120994;27;20049;-76
2023/12/16 01:59:30;;;;;;;9.30;8.40;;;6.30;99.90;;;;;;5120167;27;20051;-76
2023/12/16 02:01:55;;;;;;;10.18;9.18;;;6.20;99.90;;;;;;5120611;27;20387;-76
2023/12/16 02:04:21;;;;;;;10.88;9.23;;;6.20;99.90;;;;;;5120769;27;20076;-76
2023/12/16 02:06:47;;;;;;;11.68;9.48;;;6.10;99.90;;;;;;5139052;27;20027;-76
2023/12/16 02:09:14;;;;;;;11.63;10.43;;;6.00;99.90;;;;;;5139230;27;20436;-77
2023/12/16 02:11:39;;;;;;;11.35;9.73;;;6.00;99.90;;;;;;5117253;28;20022;-76
2023/12/16 02:14:06;;;;;;;11.98;10.02;;;5.90;99.90;;;;;;5130038;27;20019;-77
2023/12/16 02:16:32;;;;;;;10.65;9.55;;;5.90;99.90;;;;;;5138681;27;20467;-77
2023/12/16 02:18:58;;;;;;;13.18;10.25;;;5.90;99.90;;;;;;5134546;27;20053;-76
2023/12/16 02:21:23;;;;;;;10.85;9.75;;;5.90;99.90;;;;;;5136458;27;20077;-76
2023/12/16 02:23:49;;;;;;;13.05;9.48;;;5.80;99.90;;;;;;5120537;27;20031;-76
2023/12/16 02:26:15;;;;;;;13.57;9.70;;;5.80;99.90;;;;;;5120340;27;20106;-76
2023/12/16 02:28:40;;;;;;;9.65;8.20;;;5.80;99.90;;;;;;5138891;27;20551;-76
2023/12/16 02:31:06;;;;;;;11.15;9.20;;;5.80;99.90;;;;;;5138650;27;20113;-75
2023/12/16 02:33:32;;;;;;;10.25;9.10;;;5.80;99.90;;;;;;5138828;27;20027;-76
2023/12/16 02:35:59;;;;;;;10.25;9.25;;;5.80;99.90;;;;;;5138834;27;20016;-77
2023/12/16 02:38:25;;;;;;;13.43;8.77;;;5.80;99.90;;;;;;5138768;27;20038;-76
2023/12/16 02:40:51;;;;;;;10.75;8.85;;;5.90;99.90;;;;;;5138892;27;20027;-76
2023/12/16 02:43:16;;;;;;;11.35;9.02;;;5.90;99.90;;;;;;5138750;27;20031;-76
2023/12/16 02:45:42;;;;;;;9.57;8.23;;;6.00;99.90;;;;;;5119910;27;20514;-76
2023/12/16 02:48:08;;;;;;;11.68;8.55;;;6.00;99.90;;;;;;5120133;27;20027;-75
2023/12/16 02:50:34;;;;;;;10.02;8.95;;;6.00;99.90;;;;;;5138507;27;20088;-76
2023/12/16 02:52:59;;;;;;;10.98;9.00;;;6.00;99.90;;;;;;5119852;27;20114;-76
2023/12/16 02:55:25;;;;;;;10.27;9.05;;;6.00;99.90;;;;;;5120026;27;20170;-76
2023/12/16 02:57:51;;;;;;;11.45;9.20;;;6.00;99.90;;;;;;5138477;27;20084;-76
2023/12/16 03:00:17;;;;;;;10.27;9.18;;;6.00;99.90;;;;;;5138451;27;20023;-77
2023/12/16 03:02:42;;;;;;;9.98;8.90;;;6.00;99.90;;;;;;5138242;27;20027;-75
2023/12/16 03:05:08;;;;;;;9.93;8.52;;;6.10;99.90;;;;;;5138254;27;20026;-75
2023/12/16 03:07:34;;;;;;;11.07;8.40;;;6.20;99.90;;;;;;5138274;27;20027;-76
2023/12/16 03:10:00;;;;;;;13.27;8.35;;;6.30;99.90;;;;;;5138106;27;20019;-76
2023/12/16 03:12:26;;;;;;;10.68;9.32;;;6.30;99.90;;;;;;5119765;27;20027;-76
2023/12/16 03:14:51;;;;;;;10.85;8.68;;;6.30;99.90;;;;;;5138138;27;20015;-76
2023/12/16 03:17:17;;;;;;;13.52;8.70;;;6.30;99.90;;;;;;5137906;27;20479;-76
2023/12/16 03:19:42;;;;;;;12.18;9.00;;;6.30;99.90;;;;;;5113059;27;20019;-76
2023/12/16 03:22:08;;;;;;;9.10;8.20;;;6.20;99.90;;;;;;5137927;27;20387;-76
2023/12/16 03:24:34;;;;;;;11.45;8.25;;;6.20;99.90;;;;;;5138195;27;20399;-75
2023/12/16 03:26:59;;;;;;;10.20;9.13;;;6.20;99.90;;;;;;5119407;27;20157;-76
2023/12/16 03:29:25;;;;;;;12.20;8.43;;;6.10;99.90;;;;;;5137768;27;20019;-77
2023/12/16 03:31:51;;;;;;;15.85;9.35;;;6.00;99.90;;;;;;5118813;27;20118;-76
2023/12/16 03:34:16;;;;;;;11.05;9.95;;;5.90;99.90;;;;;;5117499;27;20019;-76
2023/12/16 03:36:43;;;;;;;10.70;9.60;;;5.80;99.90;;;;;;5118766;27;20031;-76
2023/12/16 03:39:08;;;;;;;11.50;9.63;;;5.80;99.90;;;;;;5118854;27;20023;-76
2023/12/16 03:41:34;;;;;;;12.60;10.32;;;5.70;99.90;;;;;;5137389;27;20106;-76
2023/12/16 03:44:00;;;;;;;15.20;9.60;;;5.60;99.90;;;;;;5137460;27;20051;-75
2023/12/16 03:46:26;;;;;;;12.48;10.02;;;5.50;99.90;;;;;;5137206;27;20034;-76
2023/12/16 03:48:52;;;;;;;12.23;10.50;;;5.50;99.90;;;;;;5119166;27;20023;-76
2023/12/16 03:51:20;;;;;;;12.52;10.05;;;5.40;99.90;;;;;;5137155;27;20022;-76
2023/12/16 03:53:46;;;;;;;11.13;9.90;;;5.50;99.90;;;;;;5137072;27;20084;-77
2023/12/16 03:56:11;;;;;;;12.80;9.60;;;5.40;99.90;;;;;;5118671;27;20495;-77
2023/12/16 03:58:37;;;;;;;14.80;9.90;;;5.40;99.90;;;;;;5137108;27;20019;-75
2023/12/16 04:01:05;;;;;;;14.95;9.80;;;5.40;99.90;;;;;;5131828;27;20822;-76
2023/12/16 04:03:30;;;;;;;11.02;9.85;;;5.30;99.90;;;;;;5116962;27;20019;-76
2023/12/16 04:05:56;;;;;;;11.20;10.00;;;5.30;99.90;;;;;;5135961;27;20041;-76
2023/12/16 04:08:22;;;;;;;12.40;9.88;;;5.30;99.90;;;;;;5116484;28;20044;-77
2023/12/16 04:10:48;;;;;;;11.15;10.05;;;5.20;99.90;;;;;;5137012;27;20023;-76
2023/12/16 04:13:15;;;;;;;11.25;10.05;;;5.20;99.90;;;;;;5136715;27;20034;-77
2023/12/16 04:15:41;;;;;;;11.10;9.90;;;5.20;99.90;;;;;;5136682;27;20033;-76
2023/12/16 04:18:06;;;;;;;14.57;10.82;;;5.20;99.90;;;;;;5114888;28;20027;-76
2023/12/16 04:20:32;;;;;;;12.85;11.43;;;5.10;99.90;;;;;;5115583;28;20066;-76
2023/12/16 04:22:58;;;;;;;13.00;10.98;;;5.10;99.90;;;;;;5136159;27;20072;-76
2023/12/16 04:25:23;;;;;;;12.13;10.82;;;5.00;99.90;;;;;;5136868;28;20038;-76
2023/12/16 04:27:49;;;;;;;11.77;10.52;;;5.00;99.90;;;;;;5136807;28;20054;-76
2023/12/16 04:30:15;;;;;;;12.25;10.95;;;4.90;99.90;;;;;;5136928;28;20019;-76
2023/12/16 04:32:40;;;;;;;13.93;10.43;;;4.90;99.90;;;;;;5136544;28;20016;-76
2023/12/16 04:35:06;;;;;;;14.98;10.73;;;4.90;99.90;;;;;;5136898;28;20027;-76
2023/12/16 04:37:32;;;;;;;11.05;9.90;;;4.90;99.90;;;;;;5117986;28;20379;-76
2023/12/16 04:39:58;;;;;;;11.27;10.02;;;4.80;99.90;;;;;;5136633;28;20050;-76
2023/12/16 04:42:23;;;;;;;13.48;10.55;;;4.80;99.90;;;;;;5136635;28;20019;-76
2023/12/16 04:44:49;;;;;;;12.27;10.38;;;4.70;99.90;;;;;;5136631;28;20034;-76
2023/12/16 04:47:14;;;;;;;12.82;10.63;;;4.60;99.90;;;;;;5136271;28;20030;-76
2023/12/16 04:49:41;;;;;;;14.50;11.13;;;4.50;99.90;;;;;;5114768;28;20054;-76
2023/12/16 04:52:06;;;;;;;13.07;10.80;;;4.50;99.90;;;;;;5115012;28;20393;-76
2023/12/16 04:54:32;;;;;;;11.80;10.23;;;4.40;99.90;;;;;;5114585;28;20139;-76
2023/12/16 04:56:57;;;;;;;11.95;10.10;;;4.40;99.90;;;;;;5114983;28;20471;-76
2023/12/16 04:59:23;;;;;;;11.30;9.75;;;4.30;99.90;;;;;;5136493;28;20087;-76
2023/12/16 05:01:49;;;;;;;13.18;9.90;;;4.30;99.90;;;;;;5134882;28;20030;-76
2023/12/16 05:04:14;;;;;;;13.52;10.25;;;4.30;99.90;;;;;;5117939;28;20490;-76
2023/12/16 05:06:40;;;;;;;12.32;9.68;;;4.30;99.90;;;;;;5136210;28;20027;-76
2023/12/16 05:09:10;;;;;;;12.68;10.27;;;4.20;99.90;;;;;;5136256;28;20549;-76
2023/12/16 05:11:36;;;;;;;13.65;10.90;;;4.10;99.90;;;;;;5114478;28;20053;-76
2023/12/16 05:14:01;;;;;;;14.85;10.40;;;4.10;99.90;;;;;;5126881;28;20068;-76
2023/12/16 05:16:28;;;;;;;12.45;10.88;;;4.10;99.90;;;;;;5136044;28;20043;-76
2023/12/16 05:18:54;;;;;;;13.18;10.27;;;4.00;99.90;;;;;;5132476;28;20571;-76
2023/12/16 05:21:20;;;;;;;12.00;10.48;;;4.10;99.90;;;;;;5133162;28;20027;-76
2023/12/16 05:23:46;;;;;;;12.73;11.43;;;4.00;99.90;;;;;;5136229;28;20391;-76
2023/12/16 05:26:11;;;;;;;13.15;9.85;;;4.00;99.90;;;;;;5117694;28;20027;-77
2023/12/16 05:28:37;;;;;;;12.15;10.35;;;4.00;99.90;;;;;;5136162;28;20023;-76
2023/12/16 05:31:03;;;;;;;12.77;10.52;;;4.00;99.90;;;;;;5135958;28;20043;-76
2023/12/16 05:33:29;;;;;;;13.57;10.52;;;4.00;99.90;;;;;;5136620;27;20072;-76
2023/12/16 05:35:55;;;;;;;13.20;10.90;;;4.10;99.90;;;;;;5121359;27;20099;-76
2023/12/16 05:38:20;;;;;;;15.50;10.32;;;4.10;99.90;;;;;;5139656;27;20030;-76
2023/12/16 05:40:46;;;;;;;12.57;9.77;;;4.10;99.90;;;;;;5121477;27;20030;-76
2023/12/16 05:43:12;;;;;;;16.08;10.55;;;4.10;99.90;;;;;;5139727;27;20881;-76
2023/12/16 05:45:38;;;;;;;17.75;12.00;;;4.20;99.90;;;;;;5139344;27;20031;-76
2023/12/16 05:48:03;;;;;;;13.95;11.23;;;4.20;99.90;;;;;;5139674;27;20008;-76
2023/12/16 05:50:29;;;;;;;12.88;10.45;;;4.20;99.90;;;;;;5139568;27;20513;-76
2023/12/16 05:52:55;;;;;;;15.32;11.32;;;4.20;99.90;;;;;;5120731;27;20023;-76
2023/12/16 05:55:20;;;;;;;14.43;10.55;;;4.20;99.90;;;;;;5139472;27;20101;-76
2023/12/16 05:57:46;;;;;;;13.82;10.05;;;4.20;99.90;;;;;;5121263;27;20447;-76
2023/12/16 06:00:12;;;;;;;14.60;10.77;;;4.20;99.90;;;;;;5139310;27;20074;-77
2023/12/16 06:02:38;;;;;;;15.40;11.10;;;4.10;99.90;;;;;;5139440;27;20027;-76
2023/12/16 06:05:04;;;;;;;15.25;11.20;;;4.10;99.90;;;;;;5120293;27;20134;-77
2023/12/16 06:07:30;;;;;;;14.73;12.15;;;4.00;99.90;;;;;;5139147;27;20503;-77
2023/12/16 06:09:56;;;;;;;16.85;14.02;;;3.90;99.90;;;;;;5117186;28;20055;-76
2023/12/16 06:12:21;;;;;;;16.65;12.60;;;3.80;99.90;;;;;;5110774;27;20023;-76
2023/12/16 06:14:47;;;;;;;17.42;12.23;;;3.70;99.90;;;;;;5120265;27;20068;-76
2023/12/16 06:17:13;;;;;;;15.05;11.48;;;3.70;99.90;;;;;;5138932;27;20023;-76
2023/12/16 06:19:38;;;;;;;14.25;11.55;;;3.70;99.90;;;;;;5113978;27;20027;-77
2023/12/16 06:22:04;;;;;;;17.10;12.25;;;3.70;99.90;;;;;;5120643;27;20034;-76
2023/12/16 06:24:30;;;;;;;16.52;12.52;;;4.00;99.90;;;;;;5139006;27;20027;-76
2023/12/16 06:26:55;;;;;;;15.43;12.38;;;4.20;99.90;;;;;;5138945;27;20027;-76
2023/12/16 06:29:21;;;;;;;18.58;13.23;;;4.20;99.90;;;;;;5120415;27;20027;-76
2023/12/16 06:31:46;;;;;;;16.73;12.32;;;4.30;99.90;;;;;;5138572;27;20073;-76
2023/12/16 06:34:12;;;;;;;17.90;13.45;;;4.30;99.90;;;;;;5120299;27;20494;-76
2023/12/16 06:36:38;;;;;;;14.45;12.05;;;4.30;99.90;;;;;;5138621;27;20050;-77
2023/12/16 06:39:03;;;;;;;19.90;14.13;;;4.40;99.90;;;;;;5138567;27;20088;-75
2023/12/16 06:41:30;;;;;;;22.10;14.82;;;4.50;99.90;;;;;;5120109;27;20027;-77
2023/12/16 06:43:56;;;;;;;24.20;14.63;;;4.60;99.90;;;;;;5136663;27;20364;-77
2023/12/16 06:46:23;;;;;;;15.13;13.35;;;4.60;99.90;;;;;;5116021;28;20073;-77
2023/12/16 06:48:49;;;;;;;18.10;13.75;;;4.60;99.90;;;;;;5134944;27;20023;-76
2023/12/16 06:51:14;;;;;;;17.30;13.80;;;4.60;99.90;;;;;;5138398;27;20049;-77
2023/12/16 06:53:40;;;;;;;20.77;13.40;;;4.50;99.90;;;;;;5119430;27;20138;-76
2023/12/16 06:56:07;;;;;;;23.90;14.90;;;4.50;99.90;;;;;;5138474;27;20054;-77
2023/12/16 06:58:34;;;;;;;17.08;13.07;;;4.40;99.90;;;;;;5119694;27;20080;-76
2023/12/16 07:01:00;;;;;;;20.60;13.52;;;4.40;99.90;;;;;;5119443;27;20423;-77
2023/12/16 07:03:28;;;;;;;19.40;13.38;;;4.30;99.90;;;;;;5137801;27;20048;-76
2023/12/16 07:05:54;;;;;;;19.58;13.15;;;4.20;99.90;;;;;;5115952;28;20062;-76
2023/12/16 07:08:20;;;;;;;18.73;13.68;;;4.20;99.90;;;;;;5134642;27;20024;-77
2023/12/16 07:10:45;;;;;;;18.20;13.05;;;4.20;99.90;;;;;;5138007;27;20034;-76
2023/12/16 07:13:11;;;;;;;15.00;12.57;;;4.30;99.90;;;;;;5138112;27;20031;-75
2023/12/16 07:15:38;;;;;;;22.48;15.50;;;4.30;99.90;;;;;;5137637;27;20092;-76
2023/12/16 07:18:03;;;;;;;22.55;15.00;;;4.40;99.90;;;;;;5119425;27;20030;-76
2023/12/16 07:20:29;;;;;;;21.02;14.20;;;4.50;99.90;;;;;;5130954;27;20023;-77
2023/12/16 07:22:55;;;;;;;19.15;13.50;;;4.40;99.90;;;;;;5119052;27;20084;-76
2023/12/16 07:25:21;;;;;;;20.05;12.43;;;4.40;99.90;;;;;;5137643;27;20399;-76
2023/12/16 07:27:47;;;;;;;16.60;14.13;;;4.30;99.90;;;;;;5137574;27;20030;-77
2023/12/16 07:30:13;;;;;;;18.42;14.02;;;4.30;99.90;;;;;;5118958;27;20023;-76
2023/12/16 07:32:40;;;;;;;20.70;13.77;;;4.20;99.90;;;;;;5137295;27;20027;-76
2023/12/16 07:35:12;;;;;;;19.30;14.13;;;4.20;99.90;;;;;;5137464;27;20064;-74
2023/12/16 07:37:40;;;;;;;17.77;14.48;;;4.20;99.90;;;;;;5119023;27;20145;-75
2023/12/16 07:40:07;;;;;;;19.30;14.05;;;4.10;99.90;;;;;;5119087;27;20106;-75
2023/12/16 07:42:32;;;;;;;22.20;16.38;;;4.10;99.90;;;;;;5137291;27;20024;-75
2023/12/16 07:44:58;;;;;;;21.85;16.50;;;4.00;99.90;;;;;;5137298;27;20554;-75
2023/12/16 07:47:24;;;;;;;20.85;15.93;;;4.00;99.90;;;;;;5137015;27;20479;-75
2023/12/16 07:49:49;;;;;;;24.38;17.20;;;3.90;99.90;;;;;;5137279;27;20030;-75
2023/12/16 07:52:16;;;;;;;24.00;15.65;;;3.70;99.90;;;;;;5115106;28;20027;-75
2023/12/16 07:54:42;;;;;;;20.67;15.85;;;3.70;99.90;;;;;;5110547;27;20082;-75
2023/12/16 07:57:07;;;;;;;21.30;16.08;;;3.70;99.90;;;;;;5136283;27;20019;-75
2023/12/16 07:59:33;;;;;;;18.42;14.60;;;3.60;99.90;;;;;;5118610;27;20035;-75
2023/12/16 08:02:03;;;;;;;21.60;16.45;;;3.60;99.90;;;;;;5114924;28;20061;-75
2023/12/16 08:04:29;;;;;;;19.75;15.52;;;3.60;99.90;;;;;;5129397;27;20027;-75
2023/12/16 08:06:55;;;;;;;21.65;15.93;;;3.60;99.90;;;;;;5136813;27;20686;-75
2023/12/16 08:09:20;;;;;;;22.52;19.15;;;3.60;99.90;;;;;;5136901;27;20023;-75
2023/12/16 08:11:46;;;;;;;24.73;16.83;;;3.70;99.90;;;;;;5136823;27;20098;-75
2023/12/16 08:14:12;;;;;;;25.23;16.85;;;3.70;99.90;;;;;;5137160;27;20054;-75
2023/12/16 08:16:38;;;;;;;24.42;18.50;;;3.80;99.90;;;;;;5118146;27;20039;-75
2023/12/16 08:19:04;;;;;;;25.35;16.70;;;3.90;99.90;;;;;;5131451;27;20061;-75
2023/12/16 08:21:29;;;;;;;25.73;18.13;;;4.00;99.90;;;;;;5135753;28;20030;-75
2023/12/16 08:23:55;;;;;;;24.27;19.10;;;4.20;99.90;;;;;;5136774;28;20043;-75
2023/12/16 08:26:21;;;;;;;20.38;15.35;;;4.20;99.90;;;;;;5118410;28;20589;-75
2023/12/16 08:28:46;;;;;;;22.52;15.43;;;4.30;99.90;;;;;;5118249;28;20043;-75
2023/12/16 08:31:12;;;;;;;23.88;15.50;;;4.50;99.90;;;;;;5136531;28;20054;-75
2023/12/16 08:33:37;;;;;;;22.75;15.93;;;4.60;99.90;;;;;;5136596;28;20505;-75
2023/12/16 08:36:04;;;;;;;24.98;16.50;;;4.70;99.90;;;;;;5136598;28;20031;-75
2023/12/16 08:38:30;;;;;;;20.48;15.98;;;4.80;99.90;;;;;;5136536;28;20034;-75
2023/12/16 08:40:57;;;;;;;22.20;16.33;;;4.90;99.90;;;;;;5136578;28;20029;-74
2023/12/16 08:43:23;;;;;;;27.25;16.50;;;5.00;99.90;;;;;;5118047;28;20109;-75
2023/12/16 08:45:49;;;;;;;22.65;17.48;;;5.10;99.90;;;;;;5117729;28;20570;-75
2023/12/16 08:48:15;;;;;;;21.58;16.08;;;5.20;99.90;;;;;;5136482;28;20076;-74
2023/12/16 08:50:42;;;;;;;26.60;16.27;;;5.20;99.90;;;;;;5136421;28;20556;-75
2023/12/16 08:53:09;;;;;;;21.08;15.45;;;5.30;99.90;;;;;;5117724;28;20023;-74
2023/12/16 08:55:35;;;;;;;23.08;16.52;;;5.40;99.90;;;;;;5117872;28;20110;-75
2023/12/16 08:58:00;;;;;;;24.30;18.20;;;5.40;99.90;;;;;;5136472;28;20063;-74
2023/12/16 09:00:26;;;;;;;25.50;16.98;;;5.50;99.90;;;;;;5136176;28;20031;-75
2023/12/16 09:02:52;;;;;;;21.63;16.60;;;5.60;99.90;;;;;;5136503;28;20034;-75
2023/12/16 09:05:19;;;;;;;28.02;17.92;;;5.60;99.90;;;;;;5114500;28;20107;-75
2023/12/16 09:07:45;;;;;;;21.48;14.75;;;5.60;99.90;;;;;;5110789;27;20116;-75
2023/12/16 09:10:11;;;;;;;23.60;14.65;;;5.70;99.90;;;;;;5140249;27;20019;-74
2023/12/16 09:12:37;;;;;;;22.15;13.73;;;5.70;99.90;;;;;;5121746;27;20502;-73
2023/12/16 09:15:03;;;;;;;21.90;16.02;;;5.80;99.90;;;;;;5121617;27;20426;-73
2023/12/16 09:17:29;;;;;;;21.88;15.00;;;5.80;99.90;;;;;;5139871;27;20391;-74
2023/12/16 09:19:55;;;;;;;19.20;13.77;;;5.90;99.90;;;;;;5139970;27;20016;-74
2023/12/16 09:22:20;;;;;;;16.45;13.30;;;5.90;99.90;;;;;;5139919;27;20062;-74
2023/12/16 09:24:47;;;;;;;19.23;13.50;;;6.00;99.90;;;;;;5121491;27;20046;-74
2023/12/16 09:27:13;;;;;;;16.67;12.23;;;6.10;99.90;;;;;;5121479;27;20045;-75
2023/12/16 09:29:39;;;;;;;16.52;12.55;;;6.10;99.90;;;;;;5139935;27;20707;-74
2023/12/16 09:32:05;;;;;;;18.02;12.50;;;6.20;99.90;;;;;;5120860;27;20035;-73
2023/12/16 09:34:31;;;;;;;18.38;11.95;;;6.20;99.90;;;;;;5139822;27;20021;-74
2023/12/16 09:36:57;;;;;;;12.60;9.60;;;6.30;99.90;;;;;;5117773;28;20027;-74
2023/12/16 09:39:23;;;;;;;11.43;9.07;;;6.30;99.90;;;;;;5139354;27;20026;-74
2023/12/16 09:41:51;;;;;;;11.48;9.32;;;6.30;99.90;;;;;;5139602;27;20429;-74
2023/12/16 09:44:19;;;;;;;14.88;9.27;;;6.40;99.90;;;;;;5121047;27;20038;-73
2023/12/16 09:46:46;;;;;;;17.10;9.75;;;6.40;99.90;;;;;;5121027;27;20051;-74
2023/12/16 09:49:15;;;;;;;15.48;8.95;;;6.50;99.90;;;;;;5139507;27;20034;-75
2023/12/16 09:51:45;;;;;;;9.25;8.20;;;6.50;99.90;;;;;;5120899;27;20035;-75
2023/12/16 09:54:10;;;;;;;14.75;9.23;;;6.60;99.90;;;;;;5139502;27;20054;-74
2023/12/16 09:56:39;;;;;;;10.35;8.43;;;6.60;99.90;;;;;;5120872;27;20035;-74
2023/12/16 09:59:06;;;;;;;11.68;8.73;;;6.70;99.90;;;;;;5139410;27;20026;-74
2023/12/16 10:01:32;;;;;;;9.48;7.75;;;6.70;99.90;;;;;;5139117;27;20019;-74
2023/12/16 10:03:58;;;;;;;12.43;7.70;;;6.70;99.90;;;;;;5139610;27;20029;-74
2023/12/16 10:06:24;;;;;;;13.50;7.65;;;6.80;99.90;;;;;;5138898;27;20027;-74
2023/12/16 10:08:50;;;;;;;10.02;7.47;;;6.80;99.90;;;;;;5139269;27;20034;-74
2023/12/16 10:11:16;;;;;;;9.02;8.07;;;6.90;99.90;;;;;;5139056;27;20056;-74
2023/12/16 10:13:59;;;;;;;10.98;7.22;;;6.90;99.90;;;;;;5120625;27;20114;-74
2023/12/16 10:16:25;;;;;;;7.82;6.20;;;7.00;99.90;;;;;;5138801;27;20477;-73
2023/12/16 10:18:53;;;;;;;10.10;6.35;;;7.00;99.90;;;;;;5135087;27;20016;-73
2023/12/16 10:21:30;;;;;;;11.07;7.43;;;7.10;99.90;;;;;;5135346;27;20038;-73
2023/12/16 10:23:58;;;;;;;10.52;6.53;;;7.10;99.90;;;;;;5139128;27;20031;-73
2023/12/16 10:26:24;;;;;;;10.15;6.55;;;7.20;99.90;;;;;;5138791;27;20029;-72
2023/12/16 10:28:52;;;;;;;7.75;6.50;;;7.20;99.90;;;;;;5138805;27;20079;-74
2023/12/16 10:31:18;;;;;;;7.10;6.40;;;7.20;99.90;;;;;;5116490;28;20615;-73
2023/12/16 10:33:45;;;;;;;9.80;7.03;;;7.30;99.90;;;;;;5112278;27;20049;-73
2023/12/16 10:36:11;;;;;;;7.72;6.72;;;7.30;99.90;;;;;;5138552;27;20622;-74
2023/12/16 10:38:37;;;;;;;8.00;6.50;;;7.30;99.90;;;;;;5120017;27;20117;-73
2023/12/16 10:41:03;;;;;;;7.75;6.47;;;7.30;99.90;;;;;;5119975;27;20057;-73
2023/12/16 10:43:29;;;;;;;9.30;6.10;;;7.30;99.90;;;;;;5119992;27;20526;-73
2023/12/16 10:45:55;;;;;;;10.65;7.55;;;7.40;99.90;;;;;;5119632;27;20042;-73
2023/12/16 10:48:21;;;;;;;7.65;6.53;;;7.50;99.90;;;;;;5138508;27;20102;-72
2023/12/16 10:50:48;;;;;;;9.18;8.07;;;7.50;99.90;;;;;;5138384;27;20487;-72
2023/12/16 10:53:32;;;;;;;9.88;8.10;;;7.60;99.90;;;;;;5138100;27;20047;-73
2023/12/16 10:56:04;;;;;;;10.60;7.78;;;7.70;99.90;;;;;;5119775;27;20031;-72
2023/12/16 10:58:37;;;;;;;9.70;7.63;;;7.70;99.90;;;;;;5138468;27;20024;-73
2023/12/16 11:01:09;;;;;;;20.65;10.07;;;7.70;99.90;;;;;;5119566;27;20031;-72
2023/12/16 11:03:50;;;;;;;8.43;6.97;;;7.80;99.90;;;;;;5119539;27;20027;-74
2023/12/16 11:06:21;;;;;;;;;;;7.80;99.90;;;;;;5138378;27;20072;-73
2023/12/16 11:08:47;;;;;;;7.65;5.55;;;7.80;99.90;;;;;;5119528;27;20430;-73
2023/12/16 11:11:16;;;;;;;7.03;6.18;;;7.90;99.90;;;;;;5137902;27;20038;-72
2023/12/16 11:13:43;;;;;;;8.30;6.45;;;7.90;99.90;;;;;;5137877;27;20062;-72
2023/12/16 11:16:23;;;;;;;9.95;6.75;;;7.90;99.90;;;;;;5118960;27;20030;-73
2023/12/16 11:18:50;;;;;;;6.93;5.63;;;8.00;99.90;;;;;;5134609;27;20088;-72
2023/12/16 11:21:19;;;;;;;8.00;6.22;;;8.00;99.90;;;;;;5116053;27;20483;-74
2023/12/16 11:23:48;;;;;;;8.32;6.35;;;8.10;99.90;;;;;;5119261;27;20414;-73
2023/12/16 11:26:16;;;;;;;9.48;5.57;;;8.20;99.90;;;;;;5137801;27;20487;-73
2023/12/16 11:28:42;;;;;;;5.60;5.07;;;8.20;99.90;;;;;;5137525;27;20027;-72
2023/12/16 11:31:10;;;;;;;9.95;5.82;;;8.20;99.90;;;;;;5137243;27;20098;-73
2023/12/16 11:33:47;;;;;;;9.40;5.43;;;8.30;99.90;;;;;;5118913;27;20024;-73
2023/12/16 11:36:19;;;;;;;7.25;4.50;;;8.30;99.90;;;;;;5137677;27;20023;-72
2023/12/16 11:38:47;;;;;;;6.15;4.70;;;8.40;99.90;;;;;;5137636;27;20023;-72
2023/12/16 11:41:34;;;;;;;6.93;4.82;;;8.40;99.90;;;;;;5118990;27;20031;-73
2023/12/16 11:44:00;;;;;;;6.78;4.72;;;8.50;99.90;;;;;;5118785;27;20030;-72
2023/12/16 11:46:39;;;;;;;8.15;5.25;;;8.50;99.90;;;;;;5137234;27;20383;-73
2023/12/16 11:49:10;;;;;;;5.53;4.35;;;8.60;99.90;;;;;;5137235;27;20072;-72
2023/12/16 11:51:38;;;;;;;4.90;4.50;;;8.60;99.90;;;;;;5137140;27;20027;-73
2023/12/16 11:54:05;;;;;;;7.60;4.03;;;8.70;99.90;;;;;;5137009;27;20099;-73
2023/12/16 11:56:31;;;;;;;5.55;4.53;;;8.70;99.90;;;;;;5118720;27;20027;-72
2023/12/16 11:59:00;;;;;;;8.23;4.28;;;8.70;99.90;;;;;;5137087;27;20035;-73
2023/12/16 12:01:27;;;;;;;7.88;4.90;;;8.80;99.90;;;;;;5118241;28;20445;-73
2023/12/16 12:03:54;;;;;;;7.13;4.50;;;8.70;99.90;;;;;;5118571;27;20031;-73
2023/12/16 12:06:20;;;;;;;5.28;4.22;;;8.80;99.90;;;;;;5136811;27;20111;-72
2023/12/16 12:08:46;;;;;;;7.47;4.80;;;8.80;99.90;;;;;;5118753;27;20059;-73
2023/12/16 12:11:13;;;;;;;3.97;3.58;;;8.80;99.90;;;;;;5136921;27;20094;-72
2023/12/16 12:13:38;;;;;;;4.80;4.20;;;8.90;99.90;;;;;;5137132;27;20066;-73
2023/12/16 12:16:07;;;;;;;5.50;4.13;;;8.90;99.90;;;;;;5136608;27;20030;-72
2023/12/16 12:18:34;;;;;;;4.80;3.80;;;8.90;99.90;;;;;;5135798;27;20038;-71
2023/12/16 12:20:59;;;;;;;4.75;4.00;;;8.90;99.90;;;;;;5113204;27;20019;-72
2023/12/16 12:23:25;;;;;;;6.47;4.00;;;9.00;99.90;;;;;;5118260;28;20053;-72
2023/12/16 12:25:55;;;;;;;3.95;3.38;;;9.00;99.90;;;;;;5118477;28;20055;-72
2023/12/16 12:28:21;;;;;;;6.05;3.88;;;9.00;99.90;;;;;;5118282;28;20020;-72
2023/12/16 12:30:47;;;;;;;5.82;3.85;;;9.00;99.90;;;;;;5136471;28;20034;-72
2023/12/16 12:33:12;;;;;;;4.20;3.60;;;9.00;99.90;;;;;;5118171;28;20462;-72
2023/12/16 12:35:38;;;;;;;8.73;3.78;;;9.00;99.90;;;;;;5136590;28;20023;-72
2023/12/16 12:38:04;;;;;;;4.90;3.90;;;9.00;99.90;;;;;;5118165;28;20035;-72
2023/12/16 12:40:30;;;;;;;4.10;3.20;;;9.00;99.90;;;;;;5117915;28;20023;-73